Time;durP1;ratioP1;P1;durP2;ratioP2;P2;SDS_P1;SDS_P2;PMS_P1;PMS_P2;Temp;Humidity;BMP_temperature;BMP_pressure;BME280_temperature;BME280_humidity;BME280_pressure;Samples;Min_cycle;Max_cycle;Signal;HPM_P1;HPM_P2
2021/08/09 00:00:38;;;;;;;5.85;3.38;;;;;;;25.63;69.85;100385.84;5116344;28;19908;-71
2021/08/09 00:03:07;;;;;;;6.85;3.28;;;;;;;25.57;69.25;100382.00;5116026;28;20038;-69
2021/08/09 00:05:36;;;;;;;6.38;3.20;;;;;;;25.51;68.25;100373.22;5115006;28;20024;-70
2021/08/09 00:08:04;;;;;;;7.10;3.65;;;;;;;25.57;68.17;100382.78;5115170;28;20080;-70
2021/08/09 00:10:35;;;;;;;4.80;3.50;;;;;;;25.48;68.89;100388.41;5115396;28;20038;-70
2021/08/09 00:13:03;;;;;;;11.40;3.65;;;;;;;25.47;69.93;100398.22;5115690;28;20462;-69
2021/08/09 00:15:31;;;;;;;6.20;3.38;;;;;;;25.45;70.01;100395.00;5114734;28;20120;-69
2021/08/09 00:17:57;;;;;;;7.05;3.65;;;;;;;25.42;70.14;100395.94;5114495;28;20146;-71
2021/08/09 00:20:25;;;;;;;7.40;3.80;;;;;;;25.38;70.45;100398.09;5114636;28;20110;-70
2021/08/09 00:22:55;;;;;;;5.85;3.60;;;;;;;25.33;71.11;100393.00;5114866;28;20436;-70
2021/08/09 00:25:23;;;;;;;5.05;3.25;;;;;;;25.32;70.77;100391.41;5114564;28;20023;-71
2021/08/09 00:27:51;;;;;;;5.30;3.17;;;;;;;25.33;71.32;100405.19;5114556;28;20042;-69
2021/08/09 00:30:25;;;;;;;5.47;3.28;;;;;;;25.35;71.14;100404.72;5114516;28;20091;-69
2021/08/09 00:32:56;;;;;;;4.47;3.63;;;;;;;25.32;71.30;100399.94;5114455;28;20039;-69
2021/08/09 00:35:25;;;;;;;4.55;3.83;;;;;;;25.33;71.29;100413.72;5114869;28;20034;-69
2021/08/09 00:37:58;;;;;;;5.32;3.63;;;;;;;25.38;71.36;100417.25;5115904;28;20110;-69
2021/08/09 00:40:28;;;;;;;6.75;3.30;;;;;;;25.42;71.38;100412.25;5114782;28;20028;-69
2021/08/09 00:42:54;;;;;;;3.40;2.88;;;;;;;25.40;71.53;100415.53;5114478;28;20059;-69
2021/08/09 00:45:20;;;;;;;6.28;3.55;;;;;;;25.39;71.45;100399.69;5114762;28;20142;-70
2021/08/09 00:47:49;;;;;;;6.28;3.10;;;;;;;25.41;71.59;100394.34;5114412;28;20028;-70
2021/08/09 00:50:17;;;;;;;5.68;3.35;;;;;;;25.45;71.86;100394.22;5114621;28;20032;-70
2021/08/09 00:52:46;;;;;;;5.00;3.10;;;;;;;25.39;71.93;100390.34;5114049;28;20031;-69
2021/08/09 00:55:16;;;;;;;5.55;3.60;;;;;;;25.34;71.95;100388.88;5114437;28;20099;-69
2021/08/09 00:57:42;;;;;;;7.95;3.30;;;;;;;25.38;71.47;100391.63;5114150;28;20038;-70
2021/08/09 01:00:11;;;;;;;4.25;3.03;;;;;;;25.30;72.04;100389.03;5113887;28;20381;-70
2021/08/09 01:02:39;;;;;;;4.90;3.45;;;;;;;25.28;71.67;100377.28;5114067;28;20382;-70
2021/08/09 01:05:08;;;;;;;4.88;3.00;;;;;;;25.38;71.35;100375.31;5112631;28;20028;-71
2021/08/09 01:07:55;;;;;;;6.30;3.05;;;;;;;25.29;71.72;100384.56;5114699;28;20031;-71
2021/08/09 01:10:34;;;;;;;6.20;3.05;;;;;;;25.30;71.87;100379.66;5114454;28;20020;-70
2021/08/09 01:13:35;;;;;;;7.40;3.08;;;;;;;25.22;72.64;100384.81;5131008;27;20035;-71
2021/08/09 01:16:09;;;;;;;6.10;3.25;;;;;;;25.24;72.16;100382.31;5015298;28;20120;-70
2021/08/09 01:18:38;;;;;;;5.50;3.15;;;;;;;25.19;72.73;100387.78;5095230;28;20048;-69
2021/08/09 01:21:08;;;;;;;3.85;3.05;;;;;;;25.13;72.22;100372.53;5113705;28;20470;-69
2021/08/09 01:23:53;;;;;;;6.05;2.90;;;;;;;25.16;72.32;100374.47;5113690;28;20031;-71
2021/08/09 01:26:56;;;;;;;8.02;3.70;;;;;;;25.25;71.91;100377.44;5113400;28;20036;-70
2021/08/09 01:29:37;;;;;;;4.25;3.20;;;;;;;25.18;71.69;100381.28;5116465;27;20023;-69
2021/08/09 01:32:05;;;;;;;6.13;3.00;;;;;;;25.14;71.41;100379.81;5113270;28;20031;-70
2021/08/09 01:34:37;;;;;;;6.47;2.88;;;;;;;25.08;71.93;100374.69;5114182;28;20107;-70
2021/08/09 01:37:04;;;;;;;5.97;3.00;;;;;;;25.10;72.05;100371.41;5128067;27;20069;-69
2021/08/09 01:39:31;;;;;;;3.70;2.60;;;;;;;25.18;71.68;100367.06;5113166;28;20046;-70
2021/08/09 01:42:00;;;;;;;5.00;2.63;;;;;;;25.12;71.73;100368.09;5113849;27;20050;-71
2021/08/09 01:44:29;;;;;;;6.85;3.03;;;;;;;25.05;72.06;100369.91;5114073;27;20452;-71
2021/08/09 01:47:01;;;;;;;3.58;2.65;;;;;;;25.01;72.18;100366.38;5096169;28;20034;-70
2021/08/09 01:49:27;;;;;;;5.63;2.88;;;;;;;24.99;72.10;100363.22;5113072;28;20020;-71
2021/08/09 01:51:57;;;;;;;6.15;2.92;;;;;;;24.99;72.29;100377.44;5113528;28;20027;-71
2021/08/09 01:54:28;;;;;;;4.72;3.08;;;;;;;24.99;72.00;100374.59;5112859;28;20177;-70
2021/08/09 01:56:53;;;;;;;4.57;2.90;;;;;;;24.94;72.04;100371.53;5112902;28;20027;-69
2021/08/09 01:59:23;;;;;;;7.00;3.63;;;;;;;24.90;71.96;100368.78;5113959;27;20036;-71
2021/08/09 02:01:49;;;;;;;4.90;2.90;;;;;;;24.88;72.30;100365.63;5130003;27;20019;-70
2021/08/09 02:04:19;;;;;;;3.40;2.88;;;;;;;24.89;72.23;100361.50;5112804;28;20116;-71
2021/08/09 02:06:48;;;;;;;3.63;2.85;;;;;;;24.84;72.39;100353.56;5114548;28;20382;-71
2021/08/09 02:09:16;;;;;;;6.15;2.97;;;;;;;24.88;71.59;100342.84;5129834;27;20063;-71
2021/08/09 02:11:59;;;;;;;6.43;3.17;;;;;;;24.77;72.43;100348.09;5112698;28;20023;-70
2021/08/09 02:14:32;;;;;;;4.72;3.20;;;;;;;24.60;73.53;100352.31;5112505;28;20035;-71
2021/08/09 02:17:10;;;;;;;5.55;3.55;;;;;;;24.54;73.73;100352.06;5113210;28;20027;-69
2021/08/09 02:20:29;;;;;;;7.78;2.80;;;;;;;24.47;74.32;100347.41;5112121;28;20054;-70
2021/08/09 02:23:05;;;;;;;4.28;3.42;;;;;;;24.40;74.65;100344.81;5107353;28;20059;-70
2021/08/09 02:25:39;;;;;;;5.38;4.15;;;;;;;24.41;75.17;100351.28;5113536;28;20047;-71
2021/08/09 02:28:19;;;;;;;6.88;3.28;;;;;;;24.42;75.20;100355.72;5129681;28;20165;-70
2021/08/09 02:30:50;;;;;;;7.03;3.33;;;;;;;24.44;75.37;100348.31;5109735;28;20028;-70
2021/08/09 02:33:22;;;;;;;9.30;4.57;;;;;;;24.44;75.07;100342.63;5113774;28;20072;-71
2021/08/09 02:35:50;;;;;;;7.88;5.22;;;;;;;24.47;75.17;100346.63;5112379;28;20024;-70
2021/08/09 02:38:19;;;;;;;6.82;5.47;;;;;;;24.46;75.43;100345.84;5129329;28;20061;-71
2021/08/09 02:40:48;;;;;;;5.40;4.47;;;;;;;24.54;74.98;100343.53;5113012;28;20055;-71
2021/08/09 02:43:18;;;;;;;9.20;3.88;;;;;;;24.54;75.04;100341.50;5112452;28;20027;-70
2021/08/09 02:45:47;;;;;;;8.65;5.75;;;;;;;24.50;74.52;100351.38;5079078;28;20059;-70
2021/08/09 02:48:19;;;;;;;10.45;8.52;;;;;;;24.60;74.08;100355.16;5112403;28;20032;-70
2021/08/09 02:50:49;;;;;;;7.43;5.60;;;;;;;24.62;74.07;100358.34;5112391;28;20539;-70
2021/08/09 02:53:20;;;;;;;5.47;4.97;;;;;;;24.53;74.52;100359.81;5096172;28;20032;-70
2021/08/09 02:55:55;;;;;;;7.18;4.95;;;;;;;24.56;74.31;100356.06;5095511;28;20037;-70
2021/08/09 02:58:22;;;;;;;6.78;5.40;;;;;;;24.56;74.52;100356.06;5129472;28;20020;-70
2021/08/09 03:00:49;;;;;;;9.90;7.90;;;;;;;24.65;74.10;100368.81;5095542;28;20036;-70
2021/08/09 03:03:21;;;;;;;8.20;5.13;;;;;;;24.69;73.79;100369.50;5112296;28;20024;-71
2021/08/09 03:05:51;;;;;;;9.82;8.07;;;;;;;24.63;74.21;100365.63;5095490;28;20031;-70
2021/08/09 03:08:18;;;;;;;13.00;10.75;;;;;;;24.56;74.05;100361.75;5113761;28;20093;-70
2021/08/09 03:10:47;;;;;;;13.88;12.45;;;;;;;24.59;74.21;100365.72;5113041;28;20432;-70
2021/08/09 03:13:19;;;;;;;15.52;11.90;;;;;;;24.61;74.13;100356.72;5112100;28;20020;-71
2021/08/09 03:15:47;;;;;;;6.10;3.95;;;;;;;24.54;73.75;100349.22;5112366;28;20430;-70
2021/08/09 03:18:18;;;;;;;6.90;3.28;;;;;;;24.56;73.72;100339.00;5113328;28;20058;-70
2021/08/09 03:20:48;;;;;;;5.00;3.00;;;;;;;24.48;73.72;100337.63;5112381;28;20023;-70
2021/08/09 03:23:19;;;;;;;4.88;2.90;;;;;;;24.46;73.91;100325.94;5112118;28;20035;-69
2021/08/09 03:25:47;;;;;;;8.05;3.13;;;;;;;24.40;74.29;100316.38;5112103;28;20463;-70
2021/08/09 03:28:16;;;;;;;4.18;3.80;;;;;;;24.37;74.28;100310.78;5115183;28;20367;-70
2021/08/09 03:30:44;;;;;;;6.00;4.70;;;;;;;24.39;74.40;100305.44;5115693;28;20110;-70
2021/08/09 03:33:12;;;;;;;9.00;4.95;;;;;;;24.36;74.06;100307.16;5116202;28;20043;-70
2021/08/09 03:35:37;;;;;;;4.60;3.88;;;;;;;24.42;73.93;100308.16;5115616;28;20116;-70
2021/08/09 03:38:03;;;;;;;10.85;3.90;;;;;;;24.33;74.03;100302.34;5115568;28;20047;-71
2021/08/09 03:40:35;;;;;;;7.05;4.60;;;;;;;24.25;74.15;100293.25;5116068;28;20027;-70
2021/08/09 03:43:04;;;;;;;9.50;5.10;;;;;;;24.38;73.85;100293.25;5115788;28;20074;-71
2021/08/09 03:45:30;;;;;;;14.15;12.15;;;;;;;24.15;73.98;100285.06;5116448;28;20039;-71
2021/08/09 03:47:56;;;;;;;16.33;13.90;;;;;;;24.05;74.85;100279.25;5115983;28;20042;-71
2021/08/09 03:50:21;;;;;;;11.98;10.32;;;;;;;24.14;74.59;100289.16;5115588;28;20462;-71
2021/08/09 03:52:53;;;;;;;7.97;7.18;;;;;;;24.25;74.56;100286.75;5115293;28;20485;-70
2021/08/09 03:55:22;;;;;;;8.38;6.22;;;;;;;24.22;75.08;100290.50;5098119;28;20074;-70
2021/08/09 03:57:50;;;;;;;9.10;8.15;;;;;;;24.26;74.66;100279.81;5115786;27;20035;-70
2021/08/09 04:00:16;;;;;;;13.00;6.25;;;;;;;24.38;74.74;100298.94;5115429;28;20095;-71
2021/08/09 04:02:44;;;;;;;9.77;6.50;;;;;;;24.33;75.05;100275.94;5132699;27;20426;-71
2021/08/09 04:05:15;;;;;;;6.70;5.47;;;;;;;24.29;75.27;100276.09;5115295;28;20059;-71
2021/08/09 04:07:45;;;;;;;7.00;5.15;;;;;;;24.29;75.01;100276.09;5114982;28;20038;-71
2021/08/09 04:10:11;;;;;;;10.52;5.55;;;;;;;24.39;74.95;100294.06;5114955;28;20485;-70
2021/08/09 04:12:39;;;;;;;6.47;4.50;;;;;;;24.34;74.86;100303.91;5114896;28;20055;-71
2021/08/09 04:15:08;;;;;;;9.18;5.57;;;;;;;24.36;74.77;100310.00;5115064;28;20020;-71
2021/08/09 04:17:36;;;;;;;7.85;4.70;;;;;;;24.48;74.19;100312.03;5114529;28;20023;-71
2021/08/09 04:20:04;;;;;;;5.85;4.00;;;;;;;24.40;73.56;100313.53;5114527;28;20130;-71
2021/08/09 04:22:32;;;;;;;7.43;3.63;;;;;;;24.60;70.78;100327.50;5114346;28;20028;-70
2021/08/09 04:24:58;;;;;;;6.32;3.88;;;;;;;24.64;68.79;100330.22;5131774;27;20081;-71
2021/08/09 04:27:25;;;;;;;3.60;2.22;;;;;;;24.63;67.69;100331.50;5114836;28;20019;-69
2021/08/09 04:29:57;;;;;;;6.70;3.03;;;;;;;24.79;65.24;100337.06;5114567;28;20036;-70
2021/08/09 04:32:39;;;;;;;2.85;2.55;;;;;;;24.85;64.34;100329.53;5114541;28;20058;-71
2021/08/09 04:35:11;;;;;;;4.82;2.63;;;;;;;24.84;63.42;100308.03;5114350;28;20031;-70
2021/08/09 04:37:38;;;;;;;3.08;2.60;;;;;;;25.02;62.75;100338.72;5114905;28;20024;-70
2021/08/09 04:40:08;;;;;;;6.20;2.60;;;;;;;25.16;62.10;100334.63;5114349;28;20032;-70
2021/08/09 04:42:36;;;;;;;6.18;2.47;;;;;;;25.28;61.55;100337.41;5114985;28;20032;-70
2021/08/09 04:45:02;;;;;;;3.95;2.53;;;;;;;25.40;60.96;100344.31;5114275;28;20457;-70
2021/08/09 04:47:30;;;;;;;9.95;4.80;;;;;;;25.61;59.42;100343.53;5114246;28;20034;-70
2021/08/09 04:50:01;;;;;;;8.27;6.57;;;;;;;25.79;59.08;100353.56;5114514;28;20038;-70
2021/08/09 04:52:34;;;;;;;13.50;8.85;;;;;;;25.99;57.74;100356.03;5114132;28;20028;-70
2021/08/09 04:55:06;;;;;;;9.20;6.13;;;;;;;26.20;56.54;100368.69;5114995;27;20390;-70
2021/08/09 04:57:37;;;;;;;8.43;3.97;;;;;;;26.48;55.36;100393.28;5113979;28;20027;-70
2021/08/09 05:00:05;;;;;;;7.10;2.78;;;;;;;26.50;54.76;100384.25;5113940;28;20466;-70
2021/08/09 05:02:34;;;;;;;4.00;2.45;;;;;;;26.79;54.44;100389.59;5115483;28;20015;-70
2021/08/09 05:05:05;;;;;;;4.47;2.78;;;;;;;27.10;53.41;100396.06;5097321;28;20038;-71
2021/08/09 05:07:33;;;;;;;5.45;2.40;;;;;;;27.32;52.77;100407.38;5113818;28;20496;-71
2021/08/09 05:10:05;;;;;;;5.68;2.78;;;;;;;27.48;53.23;100397.72;5113813;28;20027;-70
2021/08/09 05:12:33;;;;;;;6.03;2.80;;;;;;;27.57;52.57;100392.03;5130828;27;20055;-70
2021/08/09 05:15:06;;;;;;;7.78;2.40;;;;;;;27.35;55.26;100394.25;5113597;28;20336;-71
2021/08/09 05:17:36;;;;;;;6.65;2.53;;;;;;;27.30;55.91;100400.56;5113945;28;20467;-71
2021/08/09 05:20:05;;;;;;;5.60;2.85;;;;;;;27.67;54.95;100402.19;5113176;28;20055;-70
2021/08/09 05:22:35;;;;;;;8.35;3.05;;;;;;;28.10;54.63;100431.75;5114014;28;20382;-70
2021/08/09 05:25:11;;;;;;;7.65;3.30;;;;;;;28.45;54.13;100434.28;5113462;28;20031;-70
2021/08/09 05:27:39;;;;;;;6.45;2.90;;;;;;;28.82;53.05;100429.22;5113558;28;20028;-71
2021/08/09 05:30:06;;;;;;;8.10;3.65;;;;;;;29.09;52.03;100436.94;5114701;28;20070;-72
2021/08/09 05:32:38;;;;;;;9.90;3.55;;;;;;;29.43;51.03;100443.41;5113420;28;20023;-71
2021/08/09 05:35:06;;;;;;;6.07;3.20;;;;;;;29.80;49.74;100434.59;5113432;28;20530;-71
2021/08/09 05:37:34;;;;;;;5.90;3.63;;;;;;;29.86;49.35;100421.16;5113273;28;20061;-71
2021/08/09 05:40:03;;;;;;;6.32;4.35;;;;;;;29.72;49.66;100423.50;5113576;28;20055;-71
2021/08/09 05:42:31;;;;;;;8.98;3.72;;;;;;;29.62;51.45;100436.31;5114352;28;20035;-70
2021/08/09 05:45:02;;;;;;;6.35;4.57;;;;;;;29.59;50.57;100422.94;5113150;28;20028;-71
2021/08/09 05:47:33;;;;;;;14.40;5.75;;;;;;;29.29;51.99;100415.47;5113917;28;20039;-70
2021/08/09 05:50:01;;;;;;;5.82;4.03;;;;;;;29.39;51.88;100434.19;5112493;28;20027;-70
2021/08/09 05:52:29;;;;;;;4.78;4.32;;;;;;;29.66;51.47;100502.84;5113654;28;20386;-71
2021/08/09 05:55:00;;;;;;;6.88;4.35;;;;;;;29.82;50.81;100495.88;5113181;28;20032;-70
2021/08/09 05:57:25;;;;;;;5.68;4.75;;;;;;;29.94;50.55;100497.72;5112937;28;20027;-71
2021/08/09 05:59:55;;;;;;;11.88;5.50;;;;;;;29.70;50.54;100480.53;5112854;28;20164;-71
2021/08/09 06:02:23;;;;;;;7.32;5.10;;;;;;;29.13;52.37;100451.84;5113160;28;20054;-70
2021/08/09 06:04:52;;;;;;;10.25;4.55;;;;;;;29.21;51.90;100438.78;5130351;27;20030;-71
2021/08/09 06:07:23;;;;;;;9.10;4.55;;;;;;;29.10;52.55;100449.97;5112802;28;20127;-71
2021/08/09 06:09:53;;;;;;;8.38;4.07;;;;;;;28.88;53.10;100426.50;5112747;28;20027;-70
2021/08/09 06:12:21;;;;;;;8.38;4.22;;;;;;;29.28;52.01;100383.16;5112791;28;20031;-71
2021/08/09 06:14:51;;;;;;;4.47;4.00;;;;;;;28.99;52.92;100383.84;5113632;28;20027;-72
2021/08/09 06:17:22;;;;;;;7.38;4.35;;;;;;;28.49;54.41;100403.41;5113220;28;20354;-71
2021/08/09 06:19:48;;;;;;;5.10;3.92;;;;;;;28.47;54.77;100414.56;5112235;28;20059;-72
2021/08/09 06:22:16;;;;;;;16.15;8.95;;;;;;;27.89;56.33;100358.38;5112637;28;20397;-71
2021/08/09 06:24:44;;;;;;;13.55;8.70;;;;;;;27.46;57.70;100354.56;5112591;28;20114;-71
2021/08/09 06:27:15;;;;;;;14.70;8.43;;;;;;;27.43;58.54;100361.22;5112292;28;20047;-71
2021/08/09 06:29:45;;;;;;;6.30;5.53;;;;;;;27.41;58.61;100386.63;5112067;28;20032;-72
2021/08/09 06:32:16;;;;;;;10.15;5.78;;;;;;;27.76;57.15;100444.31;5112483;28;20477;-70
2021/08/09 06:34:47;;;;;;;8.45;5.50;;;;;;;28.00;56.28;100412.22;5112400;28;20035;-70
2021/08/09 06:37:16;;;;;;;8.07;5.47;;;;;;;27.99;55.82;100422.88;5112938;28;20023;-71
2021/08/09 06:39:45;;;;;;;9.23;5.32;;;;;;;28.20;54.24;100473.38;5112625;28;20027;-71
2021/08/09 06:42:15;;;;;;;8.05;5.22;;;;;;;28.43;52.95;100456.84;5112935;28;20023;-71
2021/08/09 06:44:43;;;;;;;9.27;4.30;;;;;;;28.68;51.38;100409.88;5112959;28;20134;-70
2021/08/09 06:47:11;;;;;;;7.57;3.80;;;;;;;28.36;51.02;100412.19;5112665;28;20051;-70
2021/08/09 06:49:42;;;;;;;8.07;4.28;;;;;;;28.63;50.80;100439.94;5112382;28;20458;-70
2021/08/09 06:52:07;;;;;;;7.63;4.72;;;;;;;28.56;50.88;100443.16;5112345;28;20035;-71
2021/08/09 06:54:38;;;;;;;4.40;3.72;;;;;;;29.24;49.27;100457.03;5112474;28;20024;-70
2021/08/09 06:57:04;;;;;;;5.93;4.30;;;;;;;29.52;48.84;100448.31;5112794;28;20024;-71
2021/08/09 06:59:32;;;;;;;6.00;4.43;;;;;;;30.24;46.90;100458.44;5112236;28;20031;-70
2021/08/09 07:01:57;;;;;;;7.05;4.25;;;;;;;31.17;44.04;100498.44;5112643;28;20035;-71
2021/08/09 07:04:23;;;;;;;9.02;4.57;;;;;;;31.99;42.08;100499.38;5116091;28;20050;-71
2021/08/09 07:06:54;;;;;;;7.90;4.43;;;;;;;32.74;40.47;100515.66;5116700;28;20077;-71
2021/08/09 07:09:23;;;;;;;8.30;3.97;;;;;;;33.53;38.54;100494.03;5116331;28;20028;-71
2021/08/09 07:11:51;;;;;;;4.50;2.88;;;;;;;33.72;37.58;100468.44;5133216;27;20096;-71
2021/08/09 07:14:19;;;;;;;5.75;3.35;;;;;;;34.10;36.59;100464.16;5116591;28;20031;-71
2021/08/09 07:16:50;;;;;;;5.50;3.15;;;;;;;34.58;35.63;100462.44;5117524;28;20055;-71
2021/08/09 07:19:22;;;;;;;7.90;3.30;;;;;;;35.08;34.23;100479.00;5132767;27;20414;-71
2021/08/09 07:21:56;;;;;;;6.85;3.13;;;;;;;35.29;33.89;100485.28;5116158;28;20027;-71
2021/08/09 07:24:24;;;;;;;7.57;4.40;;;;;;;34.71;33.88;100480.03;5116072;28;20054;-71
2021/08/09 07:26:54;;;;;;;7.50;5.72;;;;;;;35.22;32.76;100451.91;5116163;28;20027;-72
2021/08/09 07:29:23;;;;;;;6.55;4.25;;;;;;;34.82;33.98;100441.66;5116231;28;20046;-71
2021/08/09 07:31:48;;;;;;;5.40;4.75;;;;;;;34.09;35.78;100450.22;5115614;28;20032;-71
2021/08/09 07:34:14;;;;;;;10.52;5.07;;;;;;;33.62;36.92;100473.66;5115515;28;20531;-71
2021/08/09 07:36:45;;;;;;;7.97;4.80;;;;;;;34.17;36.40;100502.50;5132804;27;20024;-72
2021/08/09 07:39:11;;;;;;;8.93;4.30;;;;;;;34.58;36.36;100514.44;5115819;28;20461;-71
2021/08/09 07:41:39;;;;;;;9.25;5.00;;;;;;;34.50;37.00;100498.91;5115257;28;20066;-71
2021/08/09 07:44:05;;;;;;;6.18;4.60;;;;;;;35.14;35.94;100497.13;5115760;28;20427;-72
2021/08/09 07:46:30;;;;;;;8.07;4.47;;;;;;;35.08;36.52;100490.56;5115440;28;20051;-71
2021/08/09 07:48:56;;;;;;;6.57;4.15;;;;;;;34.75;37.45;100495.00;5115352;28;20031;-71
2021/08/09 07:51:24;;;;;;;6.28;3.95;;;;;;;34.89;37.47;100501.84;5115240;28;20020;-71
2021/08/09 07:53:52;;;;;;;5.40;4.00;;;;;;;34.48;37.88;100490.78;5115796;28;20058;-71
2021/08/09 07:56:23;;;;;;;6.57;4.32;;;;;;;33.88;39.53;100490.81;5115910;28;20370;-71
2021/08/09 07:58:54;;;;;;;7.57;4.30;;;;;;;34.16;39.58;100509.56;5115166;28;20035;-71
2021/08/09 08:01:22;;;;;;;5.28;3.83;;;;;;;34.24;39.60;100490.44;5115057;28;20034;-72
2021/08/09 08:03:52;;;;;;;4.32;3.67;;;;;;;35.23;38.08;100511.31;5115490;28;20050;-71
2021/08/09 08:06:23;;;;;;;6.22;3.67;;;;;;;35.29;38.80;100525.78;5115347;28;20096;-71
2021/08/09 08:08:51;;;;;;;10.45;4.32;;;;;;;35.80;37.52;100530.16;5114959;28;20061;-72
2021/08/09 08:11:19;;;;;;;5.88;3.40;;;;;;;36.73;36.09;100529.47;5115180;28;20062;-71
2021/08/09 08:13:50;;;;;;;7.53;3.35;;;;;;;36.90;35.98;100540.94;5114330;28;20061;-71
2021/08/09 08:16:20;;;;;;;7.97;3.08;;;;;;;36.72;35.92;100530.78;5114606;28;20020;-71
2021/08/09 08:18:48;;;;;;;5.35;3.30;;;;;;;36.52;36.27;100531.19;5114321;28;20043;-71
2021/08/09 08:21:16;;;;;;;5.15;2.70;;;;;;;36.22;35.97;100528.16;5114766;28;20031;-72
2021/08/09 08:23:41;;;;;;;7.05;2.63;;;;;;;36.10;35.17;100523.75;5114876;28;20020;-71
2021/08/09 08:26:10;;;;;;;3.80;2.65;;;;;;;36.19;35.30;100532.13;5115975;28;20359;-72
2021/08/09 08:28:38;;;;;;;10.38;2.90;;;;;;;36.29;33.78;100518.91;5114819;28;20035;-71
2021/08/09 08:31:11;;;;;;;5.43;2.70;;;;;;;35.89;33.52;100526.16;5114431;28;20022;-73
2021/08/09 08:33:39;;;;;;;3.42;2.45;;;;;;;36.29;33.27;100533.41;5114559;28;20027;-72
2021/08/09 08:36:08;;;;;;;3.70;2.10;;;;;;;36.21;33.55;100518.69;5115361;28;20024;-72
2021/08/09 08:38:36;;;;;;;3.53;1.90;;;;;;;35.47;33.63;100512.88;5114835;28;20458;-72
2021/08/09 08:41:06;;;;;;;4.90;2.05;;;;;;;35.82;33.04;100521.72;5114786;28;20102;-71
2021/08/09 08:43:37;;;;;;;3.10;2.00;;;;;;;35.54;33.67;100510.25;5115247;28;20027;-71
2021/08/09 08:46:11;;;;;;;6.28;2.25;;;;;;;35.30;34.63;100525.25;5131907;27;20031;-72
2021/08/09 08:48:38;;;;;;;7.63;2.22;;;;;;;35.64;33.83;100507.84;5114700;28;20055;-71
2021/08/09 08:51:04;;;;;;;6.72;2.22;;;;;;;34.97;36.32;100516.59;5114718;28;20028;-72
2021/08/09 08:53:36;;;;;;;6.32;1.70;;;;;;;35.44;34.74;100520.53;5114495;28;20032;-72
2021/08/09 08:56:06;;;;;;;3.58;1.92;;;;;;;35.64;34.02;100517.31;5114528;28;20030;-71
2021/08/09 08:58:36;;;;;;;5.22;1.85;;;;;;;35.53;34.22;100517.34;5113861;28;20084;-71
2021/08/09 09:01:04;;;;;;;3.75;1.67;;;;;;;35.87;33.52;100523.81;5113676;28;20488;-71
2021/08/09 09:03:32;;;;;;;5.35;2.42;;;;;;;35.96;34.27;100525.66;5113800;28;20031;-71
2021/08/09 09:06:00;;;;;;;5.03;2.28;;;;;;;35.65;34.09;100547.03;5113745;27;20024;-72
2021/08/09 09:08:42;;;;;;;4.18;1.90;;;;;;;35.81;32.68;100537.53;5113676;28;20058;-71
2021/08/09 09:11:12;;;;;;;2.45;2.00;;;;;;;36.76;31.50;100545.00;5113575;28;20470;-71
2021/08/09 09:13:55;;;;;;;3.28;2.10;;;;;;;36.64;31.19;100561.66;5130999;27;20035;-71
2021/08/09 09:16:20;;;;;;;6.05;2.30;;;;;;;37.02;30.94;100559.03;5113519;28;20019;-71
2021/08/09 09:18:58;;;;;;;3.40;1.92;;;;;;;37.30;30.50;100558.81;5113515;28;20056;-71
2021/08/09 09:21:37;;;;;;;3.53;1.83;;;;;;;37.48;29.59;100549.44;5114786;28;20031;-71
2021/08/09 09:24:15;;;;;;;3.13;1.85;;;;;;;37.41;30.56;100558.75;5113115;28;20023;-71
2021/08/09 09:26:55;;;;;;;4.20;2.17;;;;;;;37.84;29.37;100572.56;5115412;28;20023;-71
2021/08/09 09:29:22;;;;;;;;;;;;;;;38.16;28.42;100569.03;5113856;28;20114;-71
2021/08/09 09:31:53;;;;;;;6.00;2.40;;;;;;;38.17;27.39;100545.22;5113369;28;19919;-71
2021/08/09 09:34:24;;;;;;;4.03;2.40;;;;;;;38.81;25.87;100550.44;5114242;28;20027;-71
2021/08/09 09:36:53;;;;;;;2.47;2.28;;;;;;;39.02;24.63;100557.25;5115054;28;20031;-72
2021/08/09 09:39:26;;;;;;;7.07;2.95;;;;;;;38.57;23.53;100547.59;5113098;28;20024;-72
2021/08/09 09:41:55;;;;;;;3.70;2.60;;;;;;;39.01;22.61;100546.94;5113229;28;20118;-71
2021/08/09 09:44:26;;;;;;;3.13;2.22;;;;;;;39.42;22.20;100550.75;5130248;27;20032;-71
2021/08/09 09:47:17;;;;;;;4.47;2.75;;;;;;;39.25;22.33;100540.22;5113647;28;20390;-71
2021/08/09 09:49:46;;;;;;;;;;;;;;;37.86;24.96;100520.53;5114359;28;20092;-71
2021/08/09 09:52:34;;;;;;;5.40;2.17;;;;;;;38.56;26.60;100528.59;5112921;28;19907;-71
2021/08/09 09:55:10;;;;;;;4.88;2.85;;;;;;;39.02;27.09;100533.19;5112736;28;20084;-72
2021/08/09 09:57:40;;;;;;;4.60;2.40;;;;;;;39.31;27.01;100543.00;5130532;27;20027;-71
2021/08/09 10:00:18;;;;;;;6.07;2.15;;;;;;;39.39;23.62;100540.25;5114691;28;20032;-71
2021/08/09 10:02:48;;;;;;;3.63;1.92;;;;;;;39.09;24.10;100529.63;5129984;27;20043;-72
2021/08/09 10:05:19;;;;;;;4.50;2.00;;;;;;;39.43;23.79;100523.25;5112845;28;20032;-71
2021/08/09 10:07:52;;;;;;;4.10;1.90;;;;;;;39.28;22.92;100517.94;5113095;28;20506;-72
2021/08/09 10:10:23;;;;;;;3.70;1.90;;;;;;;39.51;22.24;100510.34;5112871;28;20032;-71
2021/08/09 10:12:52;;;;;;;4.18;1.85;;;;;;;39.74;22.76;100502.00;5113183;28;20133;-72
2021/08/09 10:15:20;;;;;;;4.60;1.92;;;;;;;39.71;23.01;100484.88;5129719;27;20034;-71
2021/08/09 10:17:48;;;;;;;3.47;2.35;;;;;;;39.68;22.99;100480.16;5130075;27;20373;-71
2021/08/09 10:20:20;;;;;;;2.60;1.27;;;;;;;38.40;25.25;100467.28;5114158;28;20026;-72
2021/08/09 10:23:00;;;;;;;1.92;1.55;;;;;;;38.60;24.67;100480.44;5112781;28;20035;-72
2021/08/09 10:25:50;;;;;;;2.85;1.75;;;;;;;38.50;23.95;100477.16;5112950;28;20114;-71
2021/08/09 10:28:19;;;;;;;1.83;1.65;;;;;;;39.12;23.42;100466.66;5114230;28;20034;-71
2021/08/09 10:30:47;;;;;;;2.38;1.77;;;;;;;39.03;24.58;100456.22;5112528;28;20028;-71
2021/08/09 10:33:15;;;;;;;2.47;1.52;;;;;;;38.53;25.29;100455.72;5113347;28;20383;-71
2021/08/09 10:35:47;;;;;;;3.70;1.60;;;;;;;38.23;25.23;100446.38;5112732;28;20020;-71
2021/08/09 10:38:17;;;;;;;2.50;1.60;;;;;;;38.00;25.42;100443.03;5116726;28;20037;-71
2021/08/09 10:40:44;;;;;;;3.08;1.55;;;;;;;37.64;25.80;100431.56;5117938;28;20043;-72
2021/08/09 10:43:13;;;;;;;3.55;1.58;;;;;;;37.86;25.25;100418.13;5116626;28;20032;-72
2021/08/09 10:45:43;;;;;;;1.98;1.42;;;;;;;37.69;24.76;100412.53;5116671;28;20039;-71
2021/08/09 10:48:12;;;;;;;1.85;1.75;;;;;;;36.71;25.42;100406.69;5117815;28;20428;-72
2021/08/09 10:50:52;;;;;;;2.70;1.13;;;;;;;37.05;24.54;100406.38;5116578;28;20038;-73
2021/08/09 10:53:28;;;;;;;1.98;1.48;;;;;;;36.42;25.43;100426.41;5117461;28;20043;-71
2021/08/09 10:56:00;;;;;;;3.90;1.60;;;;;;;36.66;24.58;100431.50;5116336;28;20024;-71
2021/08/09 10:58:41;;;;;;;3.58;1.48;;;;;;;36.37;25.06;100415.63;5116430;28;20032;-71
2021/08/09 11:01:15;;;;;;;4.05;1.63;;;;;;;37.23;24.17;100414.34;5116376;28;20055;-72
2021/08/09 11:04:02;;;;;;;3.13;1.90;;;;;;;37.38;24.53;100432.16;5130909;27;20479;-72
2021/08/09 11:06:37;;;;;;;3.13;1.50;;;;;;;36.72;25.15;100428.56;5116342;28;20031;-71
2021/08/09 11:09:31;;;;;;;6.20;3.92;;;;;;;36.73;25.25;100425.09;5116236;28;20038;-71
2021/08/09 11:12:21;;;;;;;7.22;4.57;;;;;;;37.27;24.61;100425.66;5116497;28;20031;-71
2021/08/09 11:15:10;;;;;;;4.53;3.33;;;;;;;37.29;24.21;100428.78;5117298;27;20080;-70
2021/08/09 11:17:39;;;;;;;4.88;1.95;;;;;;;37.53;23.27;100430.94;5116452;28;20310;-71
2021/08/09 11:20:25;;;;;;;2.30;1.48;;;;;;;36.86;23.97;100473.75;5115920;28;20038;-71
2021/08/09 11:23:03;;;;;;;6.22;1.65;;;;;;;37.43;24.29;100508.88;5117107;28;20039;-72
2021/08/09 11:25:37;;;;;;;4.75;1.63;;;;;;;37.21;24.77;100487.44;5116705;28;20065;-71
2021/08/09 11:28:21;;;;;;;5.47;1.65;;;;;;;37.21;25.03;100527.25;5116410;28;20051;-71
2021/08/09 11:30:53;;;;;;;5.95;2.20;;;;;;;36.90;24.77;100535.16;5115838;28;20080;-71
2021/08/09 11:33:21;;;;;;;8.40;2.40;;;;;;;36.57;24.59;100532.47;5115795;28;20123;-70
2021/08/09 11:35:48;;;;;;;10.20;2.83;;;;;;;36.29;23.75;100547.09;5115377;28;20031;-71
2021/08/09 11:38:14;;;;;;;5.10;1.77;;;;;;;36.02;25.71;100557.50;5115981;28;20031;-70
2021/08/09 11:40:43;;;;;;;7.40;2.03;;;;;;;36.11;25.98;100548.50;5115600;28;20362;-70